sensor_id;sensor_type;location;lat;lon;timestamp;temperature;humidity
70079;DHT22;57451;52.496;13.456;2023-03-14T00:00:31;13.10;67.60
70079;DHT22;57451;52.496;13.456;2023-03-14T00:02:59;13.10;67.60
70079;DHT22;57451;52.496;13.456;2023-03-14T00:05:26;13.00;67.70
70079;DHT22;57451;52.496;13.456;2023-03-14T00:07:54;13.00;67.90
70079;DHT22;57451;52.496;13.456;2023-03-14T00:10:21;13.00;68.00
70079;DHT22;57451;52.496;13.456;2023-03-14T00:12:48;12.90;68.10
70079;DHT22;57451;52.496;13.456;2023-03-14T00:15:15;12.90;68.20
70079;DHT22;57451;52.496;13.456;2023-03-14T00:17:43;12.80;68.40
70079;DHT22;57451;52.496;13.456;2023-03-14T00:20:12;12.80;68.50
70079;DHT22;57451;52.496;13.456;2023-03-14T00:22:40;12.80;68.60
70079;DHT22;57451;52.496;13.456;2023-03-14T00:25:09;12.70;68.70
70079;DHT22;57451;52.496;13.456;2023-03-14T00:27:37;12.70;68.90
70079;DHT22;57451;52.496;13.456;2023-03-14T00:30:06;12.70;69.10
70079;DHT22;57451;52.496;13.456;2023-03-14T00:32:35;12.70;69.00
70079;DHT22;57451;52.496;13.456;2023-03-14T00:35:02;12.70;69.00
70079;DHT22;57451;52.496;13.456;2023-03-14T00:37:31;12.60;69.30
70079;DHT22;57451;52.496;13.456;2023-03-14T00:39:58;12.60;69.50
70079;DHT22;57451;52.496;13.456;2023-03-14T00:42:26;12.50;69.80
70079;DHT22;57451;52.496;13.456;2023-03-14T00:44:53;12.50;69.90
70079;DHT22;57451;52.496;13.456;2023-03-14T00:47:20;12.60;69.90
70079;DHT22;57451;52.496;13.456;2023-03-14T00:49:47;12.60;70.00
70079;DHT22;57451;52.496;13.456;2023-03-14T00:52:15;12.50;70.30
70079;DHT22;57451;52.496;13.456;2023-03-14T00:54:43;12.50;70.50
70079;DHT22;57451;52.496;13.456;2023-03-14T00:57:10;12.40;70.60
70079;DHT22;57451;52.496;13.456;2023-03-14T00:59:38;12.40;70.70
70079;DHT22;57451;52.496;13.456;2023-03-14T01:18:28;12.20;71.70
70079;DHT22;57451;52.496;13.456;2023-03-14T01:20:56;12.20;71.80
70079;DHT22;57451;52.496;13.456;2023-03-14T01:23:23;12.20;71.70
70079;DHT22;57451;52.496;13.456;2023-03-14T01:25:50;12.10;71.80
70079;DHT22;57451;52.496;13.456;2023-03-14T01:28:19;12.10;71.90
70079;DHT22;57451;52.496;13.456;2023-03-14T01:30:46;12.10;71.90
70079;DHT22;57451;52.496;13.456;2023-03-14T01:33:14;12.10;72.00
70079;DHT22;57451;52.496;13.456;2023-03-14T01:35:45;12.10;72.00
70079;DHT22;57451;52.496;13.456;2023-03-14T01:38:12;12.10;72.20
70079;DHT22;57451;52.496;13.456;2023-03-14T01:40:43;12.00;72.40
70079;DHT22;57451;52.496;13.456;2023-03-14T01:43:15;12.00;72.40
70079;DHT22;57451;52.496;13.456;2023-03-14T01:46:16;12.00;72.50
70079;DHT22;57451;52.496;13.456;2023-03-14T01:48:49;12.00;72.40
70079;DHT22;57451;52.496;13.456;2023-03-14T01:51:22;12.00;72.50
70079;DHT22;57451;52.496;13.456;2023-03-14T01:53:54;12.00;72.50
70079;DHT22;57451;52.496;13.456;2023-03-14T01:56:23;12.00;72.40
70079;DHT22;57451;52.496;13.456;2023-03-14T01:58:51;12.00;72.30
70079;DHT22;57451;52.496;13.456;2023-03-14T02:01:21;12.00;72.30
70079;DHT22;57451;52.496;13.456;2023-03-14T02:03:53;12.00;72.40
70079;DHT22;57451;52.496;13.456;2023-03-14T02:06:25;12.00;72.50
70079;DHT22;57451;52.496;13.456;2023-03-14T02:08:57;12.00;72.30
70079;DHT22;57451;52.496;13.456;2023-03-14T02:11:29;12.00;72.40
70079;DHT22;57451;52.496;13.456;2023-03-14T02:14:04;12.00;72.40
70079;DHT22;57451;52.496;13.456;2023-03-14T02:16:56;11.90;72.40
70079;DHT22;57451;52.496;13.456;2023-03-14T02:19:53;12.00;72.40
70079;DHT22;57451;52.496;13.456;2023-03-14T02:22:35;12.00;72.40
70079;DHT22;57451;52.496;13.456;2023-03-14T02:25:11;12.00;72.40
70079;DHT22;57451;52.496;13.456;2023-03-14T02:27:42;12.00;72.30
70079;DHT22;57451;52.496;13.456;2023-03-14T02:30:12;12.00;72.10
70079;DHT22;57451;52.496;13.456;2023-03-14T02:32:43;11.90;72.20
70079;DHT22;57451;52.496;13.456;2023-03-14T02:35:16;11.90;72.40
70079;DHT22;57451;52.496;13.456;2023-03-14T02:37:48;11.80;72.60
70079;DHT22;57451;52.496;13.456;2023-03-14T02:40:18;11.80;72.60
70079;DHT22;57451;52.496;13.456;2023-03-14T02:42:49;11.90;72.40
70079;DHT22;57451;52.496;13.456;2023-03-14T02:45:42;11.90;72.50
70079;DHT22;57451;52.496;13.456;2023-03-14T02:48:15;11.80;72.50
70079;DHT22;57451;52.496;13.456;2023-03-14T02:50:45;11.80;72.50
70079;DHT22;57451;52.496;13.456;2023-03-14T02:53:15;11.80;72.60
70079;DHT22;57451;52.496;13.456;2023-03-14T02:55:45;11.80;72.70
70079;DHT22;57451;52.496;13.456;2023-03-14T02:58:16;11.80;72.60
70079;DHT22;57451;52.496;13.456;2023-03-14T03:00:45;11.80;72.60
70079;DHT22;57451;52.496;13.456;2023-03-14T03:03:13;11.70;72.70
70079;DHT22;57451;52.496;13.456;2023-03-14T03:05:40;11.70;72.60
70079;DHT22;57451;52.496;13.456;2023-03-14T03:08:10;11.70;72.60
70079;DHT22;57451;52.496;13.456;2023-03-14T03:10:37;11.70;72.80
70079;DHT22;57451;52.496;13.456;2023-03-14T03:13:06;11.70;72.80
70079;DHT22;57451;52.496;13.456;2023-03-14T03:15:35;11.60;72.80
70079;DHT22;57451;52.496;13.456;2023-03-14T03:18:02;11.70;72.60
70079;DHT22;57451;52.496;13.456;2023-03-14T03:20:30;11.70;72.50
70079;DHT22;57451;52.496;13.456;2023-03-14T03:22:58;11.70;72.50
70079;DHT22;57451;52.496;13.456;2023-03-14T03:25:26;11.60;72.40
70079;DHT22;57451;52.496;13.456;2023-03-14T03:27:53;11.60;72.70
70079;DHT22;57451;52.496;13.456;2023-03-14T03:30:21;11.60;72.50
70079;DHT22;57451;52.496;13.456;2023-03-14T03:32:49;11.60;72.70
70079;DHT22;57451;52.496;13.456;2023-03-14T03:35:17;11.50;72.80
70079;DHT22;57451;52.496;13.456;2023-03-14T03:37:44;11.50;72.70
70079;DHT22;57451;52.496;13.456;2023-03-14T03:40:12;11.50;72.70
70079;DHT22;57451;52.496;13.456;2023-03-14T03:42:40;11.50;72.70
70079;DHT22;57451;52.496;13.456;2023-03-14T03:45:09;11.60;72.50
70079;DHT22;57451;52.496;13.456;2023-03-14T03:47:43;11.60;72.60
70079;DHT22;57451;52.496;13.456;2023-03-14T03:50:12;11.50;72.60
70079;DHT22;57451;52.496;13.456;2023-03-14T03:52:40;11.50;72.60
70079;DHT22;57451;52.496;13.456;2023-03-14T03:55:08;11.50;72.80
70079;DHT22;57451;52.496;13.456;2023-03-14T03:57:35;11.50;72.80
70079;DHT22;57451;52.496;13.456;2023-03-14T04:00:03;11.40;72.90
70079;DHT22;57451;52.496;13.456;2023-03-14T04:02:40;11.50;72.80
70079;DHT22;57451;52.496;13.456;2023-03-14T04:05:12;11.50;72.70
70079;DHT22;57451;52.496;13.456;2023-03-14T04:07:45;11.40;72.70
70079;DHT22;57451;52.496;13.456;2023-03-14T04:10:17;11.40;72.70
70079;DHT22;57451;52.496;13.456;2023-03-14T04:12:58;11.40;72.70
70079;DHT22;57451;52.496;13.456;2023-03-14T04:15:28;11.40;72.70
70079;DHT22;57451;52.496;13.456;2023-03-14T04:17:57;11.40;72.70
70079;DHT22;57451;52.496;13.456;2023-03-14T04:20:26;11.40;72.40
70079;DHT22;57451;52.496;13.456;2023-03-14T04:22:54;11.40;72.60
70079;DHT22;57451;52.496;13.456;2023-03-14T04:25:21;11.30;72.70
70079;DHT22;57451;52.496;13.456;2023-03-14T04:27:54;11.30;72.50
70079;DHT22;57451;52.496;13.456;2023-03-14T04:30:24;11.40;72.50
70079;DHT22;57451;52.496;13.456;2023-03-14T04:33:01;11.40;72.30
70079;DHT22;57451;52.496;13.456;2023-03-14T04:35:32;11.40;72.20
70079;DHT22;57451;52.496;13.456;2023-03-14T04:38:03;11.30;72.20
70079;DHT22;57451;52.496;13.456;2023-03-14T04:40:32;11.30;72.10
70079;DHT22;57451;52.496;13.456;2023-03-14T04:43:03;11.30;72.10
70079;DHT22;57451;52.496;13.456;2023-03-14T04:45:31;11.30;72.00
70079;DHT22;57451;52.496;13.456;2023-03-14T04:48:00;11.30;72.10
70079;DHT22;57451;52.496;13.456;2023-03-14T04:50:27;11.30;71.90
70079;DHT22;57451;52.496;13.456;2023-03-14T04:52:56;11.30;72.10
70079;DHT22;57451;52.496;13.456;2023-03-14T04:55:24;11.20;72.20
70079;DHT22;57451;52.496;13.456;2023-03-14T04:57:53;11.20;72.00
70079;DHT22;57451;52.496;13.456;2023-03-14T05:00:21;11.20;72.00
70079;DHT22;57451;52.496;13.456;2023-03-14T05:02:57;11.20;71.90
70079;DHT22;57451;52.496;13.456;2023-03-14T05:05:43;11.20;71.80
70079;DHT22;57451;52.496;13.456;2023-03-14T05:08:34;11.20;71.80
70079;DHT22;57451;52.496;13.456;2023-03-14T05:11:20;11.30;71.60
70079;DHT22;57451;52.496;13.456;2023-03-14T05:13:59;11.30;71.20
70079;DHT22;57451;52.496;13.456;2023-03-14T05:16:43;11.20;71.30
70079;DHT22;57451;52.496;13.456;2023-03-14T05:19:18;11.20;71.40
70079;DHT22;57451;52.496;13.456;2023-03-14T05:22:11;11.20;71.30
70079;DHT22;57451;52.496;13.456;2023-03-14T05:24:52;11.20;71.20
70079;DHT22;57451;52.496;13.456;2023-03-14T05:27:43;11.20;71.00
70079;DHT22;57451;52.496;13.456;2023-03-14T05:30:29;11.20;70.90
70079;DHT22;57451;52.496;13.456;2023-03-14T05:33:21;11.20;70.80
70079;DHT22;57451;52.496;13.456;2023-03-14T05:35:58;11.10;70.90
70079;DHT22;57451;52.496;13.456;2023-03-14T05:38:51;11.10;70.70
70079;DHT22;57451;52.496;13.456;2023-03-14T05:41:43;11.10;70.70
70079;DHT22;57451;52.496;13.456;2023-03-14T05:44:43;11.10;70.40
70079;DHT22;57451;52.496;13.456;2023-03-14T05:47:17;11.20;70.20
70079;DHT22;57451;52.496;13.456;2023-03-14T05:49:56;11.20;69.90
70079;DHT22;57451;52.496;13.456;2023-03-14T05:52:33;11.20;69.80
70079;DHT22;57451;52.496;13.456;2023-03-14T05:55:33;11.20;69.90
70079;DHT22;57451;52.496;13.456;2023-03-14T05:58:20;11.20;69.50
70079;DHT22;57451;52.496;13.456;2023-03-14T06:01:08;11.20;69.20
70079;DHT22;57451;52.496;13.456;2023-03-14T06:03:58;11.10;69.30
70079;DHT22;57451;52.496;13.456;2023-03-14T06:06:26;11.20;69.50
70079;DHT22;57451;52.496;13.456;2023-03-14T06:08:53;11.20;69.30
70079;DHT22;57451;52.496;13.456;2023-03-14T06:11:20;11.20;69.00
70079;DHT22;57451;52.496;13.456;2023-03-14T06:13:49;11.20;68.70
70079;DHT22;57451;52.496;13.456;2023-03-14T06:16:16;11.20;68.70
70079;DHT22;57451;52.496;13.456;2023-03-14T06:18:43;11.20;68.60
70079;DHT22;57451;52.496;13.456;2023-03-14T06:21:13;11.20;68.50
70079;DHT22;57451;52.496;13.456;2023-03-14T06:23:42;11.20;67.80
70079;DHT22;57451;52.496;13.456;2023-03-14T06:26:10;11.20;68.40
70079;DHT22;57451;52.496;13.456;2023-03-14T06:28:39;11.20;67.90
70079;DHT22;57451;52.496;13.456;2023-03-14T06:31:07;11.20;68.10
70079;DHT22;57451;52.496;13.456;2023-03-14T06:33:43;11.20;67.50
70079;DHT22;57451;52.496;13.456;2023-03-14T06:36:10;11.20;67.80
70079;DHT22;57451;52.496;13.456;2023-03-14T06:38:41;11.30;67.60
70079;DHT22;57451;52.496;13.456;2023-03-14T06:41:08;11.30;67.40
70079;DHT22;57451;52.496;13.456;2023-03-14T06:43:41;11.30;67.40
70079;DHT22;57451;52.496;13.456;2023-03-14T06:46:10;11.20;67.30
70079;DHT22;57451;52.496;13.456;2023-03-14T06:48:40;11.20;67.50
70079;DHT22;57451;52.496;13.456;2023-03-14T06:51:07;11.30;67.40
70079;DHT22;57451;52.496;13.456;2023-03-14T06:53:37;11.30;67.40
70079;DHT22;57451;52.496;13.456;2023-03-14T06:56:06;11.30;67.30
70079;DHT22;57451;52.496;13.456;2023-03-14T06:58:34;11.40;68.30
70079;DHT22;57451;52.496;13.456;2023-03-14T07:01:04;11.40;67.40
70079;DHT22;57451;52.496;13.456;2023-03-14T07:03:39;11.50;67.20
70079;DHT22;57451;52.496;13.456;2023-03-14T07:06:06;11.50;67.20
70079;DHT22;57451;52.496;13.456;2023-03-14T07:08:34;11.60;66.90
70079;DHT22;57451;52.496;13.456;2023-03-14T07:11:01;11.60;66.60
70079;DHT22;57451;52.496;13.456;2023-03-14T07:13:29;11.60;66.70
70079;DHT22;57451;52.496;13.456;2023-03-14T07:16:02;11.60;66.80
70079;DHT22;57451;52.496;13.456;2023-03-14T07:18:30;11.60;66.50
70079;DHT22;57451;52.496;13.456;2023-03-14T07:20:58;11.60;66.20
70079;DHT22;57451;52.496;13.456;2023-03-14T07:23:26;11.60;66.20
70079;DHT22;57451;52.496;13.456;2023-03-14T07:25:53;11.70;66.40
70079;DHT22;57451;52.496;13.456;2023-03-14T07:28:23;11.70;66.20
70079;DHT22;57451;52.496;13.456;2023-03-14T07:30:57;11.70;65.70
70079;DHT22;57451;52.496;13.456;2023-03-14T07:33:29;11.70;65.70
70079;DHT22;57451;52.496;13.456;2023-03-14T07:35:58;11.70;66.20
70079;DHT22;57451;52.496;13.456;2023-03-14T07:38:26;11.80;66.10
70079;DHT22;57451;52.496;13.456;2023-03-14T07:41:13;11.80;65.50
70079;DHT22;57451;52.496;13.456;2023-03-14T07:43:48;11.90;65.30
70079;DHT22;57451;52.496;13.456;2023-03-14T07:46:15;11.90;65.30
70079;DHT22;57451;52.496;13.456;2023-03-14T07:48:42;11.90;65.10
70079;DHT22;57451;52.496;13.456;2023-03-14T07:51:11;11.90;65.00
70079;DHT22;57451;52.496;13.456;2023-03-14T07:53:38;11.90;65.00
70079;DHT22;57451;52.496;13.456;2023-03-14T07:56:07;12.00;64.80
70079;DHT22;57451;52.496;13.456;2023-03-14T07:58:34;11.90;65.00
70079;DHT22;57451;52.496;13.456;2023-03-14T08:01:01;11.90;65.20
70079;DHT22;57451;52.496;13.456;2023-03-14T08:03:28;11.90;65.20
70079;DHT22;57451;52.496;13.456;2023-03-14T08:05:56;12.00;65.10
70079;DHT22;57451;52.496;13.456;2023-03-14T08:08:24;12.00;64.80
70079;DHT22;57451;52.496;13.456;2023-03-14T08:10:51;12.00;64.80
70079;DHT22;57451;52.496;13.456;2023-03-14T08:13:19;12.10;64.50
70079;DHT22;57451;52.496;13.456;2023-03-14T08:15:48;12.10;64.30
70079;DHT22;57451;52.496;13.456;2023-03-14T08:18:16;12.20;64.60
70079;DHT22;57451;52.496;13.456;2023-03-14T08:20:43;12.20;64.20
70079;DHT22;57451;52.496;13.456;2023-03-14T08:23:10;12.20;64.00
70079;DHT22;57451;52.496;13.456;2023-03-14T08:25:39;12.30;64.70
70079;DHT22;57451;52.496;13.456;2023-03-14T08:28:06;12.30;64.00
70079;DHT22;57451;52.496;13.456;2023-03-14T08:30:33;12.30;63.90
70079;DHT22;57451;52.496;13.456;2023-03-14T08:33:01;12.40;63.70
70079;DHT22;57451;52.496;13.456;2023-03-14T08:35:28;12.40;63.70
70079;DHT22;57451;52.496;13.456;2023-03-14T08:37:55;12.40;64.30
70079;DHT22;57451;52.496;13.456;2023-03-14T08:40:23;12.40;63.30
70079;DHT22;57451;52.496;13.456;2023-03-14T08:42:51;12.40;63.60
70079;DHT22;57451;52.496;13.456;2023-03-14T08:45:19;12.40;63.70
70079;DHT22;57451;52.496;13.456;2023-03-14T08:47:46;12.40;63.80
70079;DHT22;57451;52.496;13.456;2023-03-14T08:50:13;12.40;63.60
70079;DHT22;57451;52.496;13.456;2023-03-14T08:52:42;12.40;63.80
70079;DHT22;57451;52.496;13.456;2023-03-14T08:55:10;12.50;63.80
70079;DHT22;57451;52.496;13.456;2023-03-14T08:57:38;12.50;63.10
70079;DHT22;57451;52.496;13.456;2023-03-14T09:00:08;12.50;63.30
70079;DHT22;57451;52.496;13.456;2023-03-14T09:02:41;12.50;63.60
70079;DHT22;57451;52.496;13.456;2023-03-14T09:05:10;12.60;63.10
70079;DHT22;57451;52.496;13.456;2023-03-14T09:07:38;12.60;62.80
70079;DHT22;57451;52.496;13.456;2023-03-14T09:10:07;12.50;63.40
70079;DHT22;57451;52.496;13.456;2023-03-14T09:12:34;12.60;63.40
70079;DHT22;57451;52.496;13.456;2023-03-14T09:15:02;12.60;62.80
70079;DHT22;57451;52.496;13.456;2023-03-14T09:17:31;12.60;62.70
70079;DHT22;57451;52.496;13.456;2023-03-14T09:19:58;12.70;62.80
70079;DHT22;57451;52.496;13.456;2023-03-14T09:22:26;12.80;62.40
70079;DHT22;57451;52.496;13.456;2023-03-14T09:24:54;13.00;62.70
70079;DHT22;57451;52.496;13.456;2023-03-14T09:27:21;13.20;61.80
70079;DHT22;57451;52.496;13.456;2023-03-14T09:29:48;13.50;61.10
70079;DHT22;57451;52.496;13.456;2023-03-14T09:32:16;13.80;60.10
70079;DHT22;57451;52.496;13.456;2023-03-14T09:34:44;14.10;59.40
70079;DHT22;57451;52.496;13.456;2023-03-14T09:37:11;14.50;58.60
70079;DHT22;57451;52.496;13.456;2023-03-14T09:39:39;14.80;56.80
70079;DHT22;57451;52.496;13.456;2023-03-14T09:42:08;15.10;55.50
70079;DHT22;57451;52.496;13.456;2023-03-14T09:44:47;15.50;54.20
70079;DHT22;57451;52.496;13.456;2023-03-14T09:47:15;15.90;55.40
70079;DHT22;57451;52.496;13.456;2023-03-14T09:49:44;16.00;54.00
70079;DHT22;57451;52.496;13.456;2023-03-14T09:52:15;16.20;53.00
70079;DHT22;57451;52.496;13.456;2023-03-14T09:54:47;16.30;51.90
70079;DHT22;57451;52.496;13.456;2023-03-14T09:57:18;16.10;52.30
70079;DHT22;57451;52.496;13.456;2023-03-14T09:59:47;16.00;51.70
70079;DHT22;57451;52.496;13.456;2023-03-14T10:02:19;15.70;52.40
70079;DHT22;57451;52.496;13.456;2023-03-14T10:04:50;15.60;52.80
70079;DHT22;57451;52.496;13.456;2023-03-14T10:07:19;15.60;52.70
70079;DHT22;57451;52.496;13.456;2023-03-14T10:09:50;15.40;53.40
70079;DHT22;57451;52.496;13.456;2023-03-14T10:12:19;15.30;53.30
70079;DHT22;57451;52.496;13.456;2023-03-14T10:14:49;15.20;53.70
70079;DHT22;57451;52.496;13.456;2023-03-14T10:17:17;15.10;53.90
70079;DHT22;57451;52.496;13.456;2023-03-14T10:19:53;15.00;53.60
70079;DHT22;57451;52.496;13.456;2023-03-14T10:22:21;14.90;53.80
70079;DHT22;57451;52.496;13.456;2023-03-14T10:24:52;14.70;54.50
70079;DHT22;57451;52.496;13.456;2023-03-14T10:27:23;14.60;54.70
70079;DHT22;57451;52.496;13.456;2023-03-14T10:29:55;14.50;55.80
70079;DHT22;57451;52.496;13.456;2023-03-14T10:32:32;14.50;54.90
70079;DHT22;57451;52.496;13.456;2023-03-14T10:35:08;14.40;54.90
70079;DHT22;57451;52.496;13.456;2023-03-14T10:37:36;14.30;55.00
70079;DHT22;57451;52.496;13.456;2023-03-14T10:40:14;14.20;55.40
70079;DHT22;57451;52.496;13.456;2023-03-14T10:42:43;14.20;55.20
70079;DHT22;57451;52.496;13.456;2023-03-14T10:45:28;14.20;55.60
70079;DHT22;57451;52.496;13.456;2023-03-14T10:47:59;14.10;55.10
70079;DHT22;57451;52.496;13.456;2023-03-14T10:50:29;14.10;55.90
70079;DHT22;57451;52.496;13.456;2023-03-14T10:53:00;14.10;56.20
70079;DHT22;57451;52.496;13.456;2023-03-14T10:55:40;14.10;54.70
70079;DHT22;57451;52.496;13.456;2023-03-14T10:58:21;14.00;55.10
70079;DHT22;57451;52.496;13.456;2023-03-14T11:00:54;13.90;55.50
70079;DHT22;57451;52.496;13.456;2023-03-14T11:03:24;13.90;55.60
70079;DHT22;57451;52.496;13.456;2023-03-14T11:05:57;13.80;55.60
70079;DHT22;57451;52.496;13.456;2023-03-14T11:08:32;13.70;56.00
70079;DHT22;57451;52.496;13.456;2023-03-14T11:11:09;13.60;56.00
70079;DHT22;57451;52.496;13.456;2023-03-14T11:13:43;13.60;56.30
70079;DHT22;57451;52.496;13.456;2023-03-14T11:16:18;13.60;57.00
70079;DHT22;57451;52.496;13.456;2023-03-14T11:18:56;13.70;56.40
70079;DHT22;57451;52.496;13.456;2023-03-14T11:21:32;13.70;56.10
70079;DHT22;57451;52.496;13.456;2023-03-14T11:24:21;13.70;56.90
70079;DHT22;57451;52.496;13.456;2023-03-14T11:26:55;13.70;56.50
70079;DHT22;57451;52.496;13.456;2023-03-14T11:29:30;13.70;56.70
70079;DHT22;57451;52.496;13.456;2023-03-14T11:32:07;13.60;56.70
70079;DHT22;57451;52.496;13.456;2023-03-14T11:34:42;13.60;57.10
70079;DHT22;57451;52.496;13.456;2023-03-14T11:37:16;13.60;57.20
70079;DHT22;57451;52.496;13.456;2023-03-14T11:39:56;13.60;57.40
70079;DHT22;57451;52.496;13.456;2023-03-14T11:42:27;13.60;57.30
70079;DHT22;57451;52.496;13.456;2023-03-14T11:44:56;13.60;57.70
70079;DHT22;57451;52.496;13.456;2023-03-14T11:47:27;13.60;57.70
70079;DHT22;57451;52.496;13.456;2023-03-14T11:49:58;13.60;58.20
70079;DHT22;57451;52.496;13.456;2023-03-14T11:52:31;13.60;58.40
70079;DHT22;57451;52.496;13.456;2023-03-14T11:55:04;13.60;59.20
70079;DHT22;57451;52.496;13.456;2023-03-14T11:57:32;13.60;59.70
70079;DHT22;57451;52.496;13.456;2023-03-14T12:00:03;13.50;59.30
70079;DHT22;57451;52.496;13.456;2023-03-14T12:02:45;13.50;59.40
70079;DHT22;57451;52.496;13.456;2023-03-14T12:05:40;13.40;59.90
70079;DHT22;57451;52.496;13.456;2023-03-14T12:08:45;13.40;59.80
70079;DHT22;57451;52.496;13.456;2023-03-14T12:11:17;13.40;60.80
70079;DHT22;57451;52.496;13.456;2023-03-14T12:13:48;13.50;60.80
70079;DHT22;57451;52.496;13.456;2023-03-14T12:16:34;13.50;60.90
70079;DHT22;57451;52.496;13.456;2023-03-14T12:19:31;13.50;61.30
70079;DHT22;57451;52.496;13.456;2023-03-14T12:22:06;13.50;60.80
70079;DHT22;57451;52.496;13.456;2023-03-14T12:24:37;13.50;61.20
70079;DHT22;57451;52.496;13.456;2023-03-14T12:27:06;13.60;61.30
70079;DHT22;57451;52.496;13.456;2023-03-14T12:29:57;13.60;61.20
70079;DHT22;57451;52.496;13.456;2023-03-14T12:32:24;13.50;61.10
70079;DHT22;57451;52.496;13.456;2023-03-14T12:34:52;13.60;61.30
70079;DHT22;57451;52.496;13.456;2023-03-14T12:37:25;13.60;61.20
70079;DHT22;57451;52.496;13.456;2023-03-14T12:40:13;13.60;60.90
70079;DHT22;57451;52.496;13.456;2023-03-14T12:42:46;13.60;61.20
70079;DHT22;57451;52.496;13.456;2023-03-14T12:45:27;13.70;61.20
70079;DHT22;57451;52.496;13.456;2023-03-14T12:48:06;13.70;62.20
70079;DHT22;57451;52.496;13.456;2023-03-14T12:50:38;13.70;62.40
70079;DHT22;57451;52.496;13.456;2023-03-14T12:53:52;13.70;63.00
70079;DHT22;57451;52.496;13.456;2023-03-14T12:56:34;13.70;63.70
70079;DHT22;57451;52.496;13.456;2023-03-14T12:59:13;13.70;62.90
70079;DHT22;57451;52.496;13.456;2023-03-14T13:01:48;13.70;63.00
70079;DHT22;57451;52.496;13.456;2023-03-14T13:04:27;13.80;62.90
70079;DHT22;57451;52.496;13.456;2023-03-14T13:07:11;13.80;62.40
70079;DHT22;57451;52.496;13.456;2023-03-14T13:09:53;13.80;61.90
70079;DHT22;57451;52.496;13.456;2023-03-14T13:12:27;13.80;62.70
70079;DHT22;57451;52.496;13.456;2023-03-14T13:14:58;13.70;63.30
70079;DHT22;57451;52.496;13.456;2023-03-14T13:17:29;13.70;64.30
70079;DHT22;57451;52.496;13.456;2023-03-14T13:20:09;13.60;65.90
70079;DHT22;57451;52.496;13.456;2023-03-14T13:22:38;13.50;65.10
70079;DHT22;57451;52.496;13.456;2023-03-14T13:25:09;13.60;65.70
70079;DHT22;57451;52.496;13.456;2023-03-14T13:27:38;13.50;65.90
70079;DHT22;57451;52.496;13.456;2023-03-14T13:30:15;13.40;66.40
70079;DHT22;57451;52.496;13.456;2023-03-14T13:32:44;13.40;67.00
70079;DHT22;57451;52.496;13.456;2023-03-14T13:35:22;13.40;67.10
70079;DHT22;57451;52.496;13.456;2023-03-14T13:37:58;13.50;67.40
70079;DHT22;57451;52.496;13.456;2023-03-14T13:40:38;13.60;68.20
70079;DHT22;57451;52.496;13.456;2023-03-14T13:43:18;13.80;69.00
70079;DHT22;57451;52.496;13.456;2023-03-14T13:45:50;14.20;69.30
70079;DHT22;57451;52.496;13.456;2023-03-14T13:48:19;14.60;67.70
70079;DHT22;57451;52.496;13.456;2023-03-14T13:50:51;15.00;65.10
70079;DHT22;57451;52.496;13.456;2023-03-14T13:53:20;15.50;63.40
70079;DHT22;57451;52.496;13.456;2023-03-14T13:55:47;16.00;59.00
70079;DHT22;57451;52.496;13.456;2023-03-14T13:58:23;16.40;57.70
70079;DHT22;57451;52.496;13.456;2023-03-14T14:01:13;16.90;58.20
70079;DHT22;57451;52.496;13.456;2023-03-14T14:03:42;17.30;55.10
70079;DHT22;57451;52.496;13.456;2023-03-14T14:06:21;17.40;54.60
70079;DHT22;57451;52.496;13.456;2023-03-14T14:08:50;17.70;52.80
70079;DHT22;57451;52.496;13.456;2023-03-14T14:11:22;17.90;52.40
70079;DHT22;57451;52.496;13.456;2023-03-14T14:14:04;17.80;52.70
70079;DHT22;57451;52.496;13.456;2023-03-14T14:16:33;18.00;52.90
70079;DHT22;57451;52.496;13.456;2023-03-14T14:19:01;18.30;52.30
70079;DHT22;57451;52.496;13.456;2023-03-14T14:21:28;18.40;52.10
70079;DHT22;57451;52.496;13.456;2023-03-14T14:23:56;18.60;52.30
70079;DHT22;57451;52.496;13.456;2023-03-14T14:26:23;18.80;50.80
70079;DHT22;57451;52.496;13.456;2023-03-14T14:28:59;18.90;51.30
70079;DHT22;57451;52.496;13.456;2023-03-14T14:31:28;19.20;50.80
70079;DHT22;57451;52.496;13.456;2023-03-14T14:33:57;19.30;51.10
70079;DHT22;57451;52.496;13.456;2023-03-14T14:36:28;19.10;49.10
70079;DHT22;57451;52.496;13.456;2023-03-14T14:39:01;18.80;50.20
70079;DHT22;57451;52.496;13.456;2023-03-14T14:41:34;18.70;50.50
70079;DHT22;57451;52.496;13.456;2023-03-14T14:44:04;18.40;50.20
70079;DHT22;57451;52.496;13.456;2023-03-14T14:46:34;18.00;50.30
70079;DHT22;57451;52.496;13.456;2023-03-14T14:49:04;17.70;50.90
70079;DHT22;57451;52.496;13.456;2023-03-14T14:51:38;17.50;51.90
70079;DHT22;57451;52.496;13.456;2023-03-14T14:54:12;17.50;51.60
70079;DHT22;57451;52.496;13.456;2023-03-14T14:56:39;17.20;52.50
70079;DHT22;57451;52.496;13.456;2023-03-14T14:59:23;17.10;51.90
70079;DHT22;57451;52.496;13.456;2023-03-14T15:01:55;17.10;52.90
70079;DHT22;57451;52.496;13.456;2023-03-14T15:04:23;16.90;53.40
70079;DHT22;57451;52.496;13.456;2023-03-14T15:06:52;16.60;53.50
70079;DHT22;57451;52.496;13.456;2023-03-14T15:09:20;16.50;53.30
70079;DHT22;57451;52.496;13.456;2023-03-14T15:11:47;16.20;54.20
70079;DHT22;57451;52.496;13.456;2023-03-14T15:14:15;16.00;55.10
70079;DHT22;57451;52.496;13.456;2023-03-14T15:16:42;15.80;55.30
70079;DHT22;57451;52.496;13.456;2023-03-14T15:19:20;15.70;55.90
70079;DHT22;57451;52.496;13.456;2023-03-14T15:21:51;15.70;55.80
70079;DHT22;57451;52.496;13.456;2023-03-14T15:24:19;15.50;56.60
70079;DHT22;57451;52.496;13.456;2023-03-14T15:26:46;14.90;58.90
70079;DHT22;57451;52.496;13.456;2023-03-14T15:29:14;13.70;57.80
70079;DHT22;57451;52.496;13.456;2023-03-14T15:31:42;13.10;59.80
70079;DHT22;57451;52.496;13.456;2023-03-14T15:34:12;12.70;59.00
70079;DHT22;57451;52.496;13.456;2023-03-14T15:36:39;12.40;59.90
70079;DHT22;57451;52.496;13.456;2023-03-14T15:39:07;12.20;59.40
70079;DHT22;57451;52.496;13.456;2023-03-14T15:41:36;11.90;60.10
70079;DHT22;57451;52.496;13.456;2023-03-14T15:44:04;11.60;60.30
70079;DHT22;57451;52.496;13.456;2023-03-14T15:46:31;11.30;61.80
70079;DHT22;57451;52.496;13.456;2023-03-14T15:48:58;11.00;61.60
70079;DHT22;57451;52.496;13.456;2023-03-14T15:51:27;10.90;62.50
70079;DHT22;57451;52.496;13.456;2023-03-14T15:53:54;10.90;61.70
70079;DHT22;57451;52.496;13.456;2023-03-14T15:56:21;10.70;61.20
70079;DHT22;57451;52.496;13.456;2023-03-14T15:58:52;10.30;62.20
70079;DHT22;57451;52.496;13.456;2023-03-14T16:01:19;10.20;60.90